Time;durP1;ratioP1;P1;durP2;ratioP2;P2;SDS_P1;SDS_P2;PMS_P1;PMS_P2;Temp;Humidity;BMP_temperature;BMP_pressure;BME280_temperature;BME280_humidity;BME280_pressure;Samples;Min_cycle;Max_cycle;Signal;HPM_P1;HPM_P2
2024/01/31 00:01:17;;;;;;;14.87;11.40;;;7.20;1.00;;;;;;6258744;23;20431;-90
2024/01/31 00:03:44;;;;;;;11.17;10.00;;;7.20;1.00;;;;;;6253970;23;20413;-88
2024/01/31 00:06:12;;;;;;;13.57;10.47;;;7.20;1.00;;;;;;6256472;23;20405;-88
2024/01/31 00:08:38;;;;;;;13.33;10.60;;;7.20;1.00;;;;;;6261817;23;20453;-88
2024/01/31 00:11:06;;;;;;;16.50;10.50;;;7.20;99.90;;;;;;6274832;22;20407;-88
2024/01/31 00:13:33;;;;;;;14.30;11.83;;;7.30;99.90;;;;;;6264117;22;20455;-89
2024/01/31 00:16:01;;;;;;;17.13;11.50;;;7.30;99.90;;;;;;6266563;22;20376;-89
2024/01/31 00:18:28;;;;;;;14.00;11.15;;;7.40;99.90;;;;;;6258263;23;20413;-89
2024/01/31 00:20:55;;;;;;;15.33;10.30;;;7.40;99.90;;;;;;6255090;23;20528;-89
2024/01/31 00:23:23;;;;;;;12.93;11.60;;;7.40;99.90;;;;;;6257748;23;20435;-89
2024/01/31 00:25:52;;;;;;;12.13;10.20;;;7.40;66.00;;;;;;6253943;23;20416;-88
2024/01/31 00:28:19;;;;;;;11.23;9.77;;;7.40;99.90;;;;;;6254012;23;20456;-87
2024/01/31 00:30:49;;;;;;;12.07;10.63;;;7.50;58.40;;;;;;6264695;22;20408;-86
2024/01/31 00:33:17;;;;;;;11.40;9.83;;;7.70;99.90;;;;;;6273061;22;20413;-86
2024/01/31 00:35:45;;;;;;;13.13;9.97;;;7.70;99.90;;;;;;6271693;23;20418;-87
2024/01/31 00:38:15;;;;;;;10.40;8.93;;;7.80;55.00;;;;;;6274167;22;20475;-87
2024/01/31 00:40:42;;;;;;;11.33;8.70;;;7.90;1.00;;;;;;6267789;23;20418;-87
2024/01/31 00:43:10;;;;;;;10.47;9.07;;;8.00;99.90;;;;;;6273658;22;20410;-88
2024/01/31 00:45:37;;;;;;;12.73;9.03;;;7.90;1.00;;;;;;6274829;22;20395;-89
2024/01/31 00:48:05;;;;;;;12.47;9.30;;;7.90;1.00;;;;;;6255667;23;20463;-89
2024/01/31 00:50:35;;;;;;;10.60;9.70;;;7.90;1.00;;;;;;6254720;23;20465;-88
2024/01/31 00:53:03;;;;;;;12.90;9.63;;;7.90;1.00;;;;;;6254305;23;20478;-87
2024/01/31 00:55:29;;;;;;;11.17;9.97;;;8.00;99.90;;;;;;6260344;23;20416;-88
2024/01/31 00:57:56;;;;;;;10.13;8.47;;;7.90;99.90;;;;;;6254352;23;20456;-88
2024/01/31 01:00:25;;;;;;;12.23;9.37;;;8.00;99.90;;;;;;6252924;23;20419;-87
2024/01/31 01:02:52;;;;;;;10.40;7.90;;;8.00;99.90;;;;;;6253730;23;20364;-87
2024/01/31 01:05:20;;;;;;;14.40;9.30;;;8.00;99.90;;;;;;6252708;23;20409;-87
2024/01/31 01:07:48;;;;;;;11.80;8.43;;;8.00;99.90;;;;;;6253734;23;20397;-89
2024/01/31 01:10:16;;;;;;;13.03;7.90;;;8.00;99.90;;;;;;6252200;23;20463;-87
2024/01/31 01:12:44;;;;;;;9.70;7.57;;;8.00;99.90;;;;;;6254935;23;20411;-88
2024/01/31 01:15:11;;;;;;;9.37;8.43;;;8.00;3.00;;;;;;6254489;23;20452;-88
2024/01/31 01:17:38;;;;;;;8.00;7.17;;;8.10;12.60;;;;;;6253847;23;20412;-87
2024/01/31 01:20:06;;;;;;;8.13;7.17;;;8.00;1.00;;;;;;6253363;23;20516;-88
2024/01/31 01:22:34;;;;;;;9.70;7.53;;;8.00;1.00;;;;;;6256283;23;20893;-88
2024/01/31 01:25:02;;;;;;;11.73;7.37;;;8.00;1.00;;;;;;6257346;23;20440;-90
2024/01/31 01:27:29;;;;;;;10.97;6.47;;;8.10;1.00;;;;;;6257821;23;20406;-91
2024/01/31 01:29:56;;;;;;;8.03;6.50;;;8.10;1.00;;;;;;6257128;23;20402;-90
2024/01/31 01:32:23;;;;;;;10.37;7.77;;;8.10;1.00;;;;;;6259208;23;20433;-90
2024/01/31 01:34:50;;;;;;;7.83;7.00;;;8.00;1.00;;;;;;6261021;23;20411;-90
2024/01/31 01:37:17;;;;;;;7.43;6.47;;;8.10;1.00;;;;;;6257699;23;20412;-88
2024/01/31 01:39:45;;;;;;;8.43;6.40;;;8.00;1.00;;;;;;6255841;23;20420;-88
2024/01/31 01:42:13;;;;;;;7.07;6.20;;;8.00;1.00;;;;;;6254452;23;20466;-87
2024/01/31 01:44:45;;;;;;;7.50;6.33;;;8.10;1.00;;;;;;6253260;23;20429;-88
2024/01/31 01:47:13;;;;;;;7.80;6.70;;;8.10;1.00;;;;;;6254549;23;20409;-89
2024/01/31 01:49:40;;;;;;;6.70;5.50;;;8.10;99.90;;;;;;6253229;23;20484;-88
2024/01/31 01:52:08;;;;;;;6.90;6.13;;;8.20;99.90;;;;;;6252884;23;20460;-88
2024/01/31 01:54:36;;;;;;;6.30;5.70;;;8.20;99.90;;;;;;6251942;23;20384;-88
2024/01/31 01:57:05;;;;;;;7.60;5.50;;;8.20;99.90;;;;;;6259548;23;20441;-87
2024/01/31 01:59:34;;;;;;;5.97;4.90;;;8.20;99.90;;;;;;6274579;22;20391;-88
2024/01/31 02:02:02;;;;;;;6.60;5.23;;;8.20;99.90;;;;;;6260685;22;20464;-85
2024/01/31 02:04:29;;;;;;;5.10;4.70;;;8.20;99.90;;;;;;6256560;23;20779;-85
2024/01/31 02:06:56;;;;;;;5.23;4.73;;;8.30;99.90;;;;;;6255727;23;20393;-86
2024/01/31 02:09:24;;;;;;;5.60;4.23;;;8.30;99.90;;;;;;6251238;23;20746;-86
2024/01/31 02:11:51;;;;;;;5.27;4.10;;;8.50;99.90;;;;;;6250686;23;20428;-84
2024/01/31 02:14:18;;;;;;;4.00;3.70;;;8.50;99.90;;;;;;6250802;23;20372;-84
2024/01/31 02:16:47;;;;;;;5.63;3.80;;;8.60;99.90;;;;;;6250232;23;20441;-84
2024/01/31 02:19:13;;;;;;;3.67;3.37;;;8.60;99.90;;;;;;6249815;23;20445;-85
2024/01/31 02:21:44;;;;;;;5.50;3.90;;;8.50;99.90;;;;;;6250084;23;20733;-85
2024/01/31 02:24:12;;;;;;;5.47;4.97;;;8.50;99.90;;;;;;6250527;23;20378;-85
2024/01/31 02:26:39;;;;;;;4.97;4.10;;;8.40;99.90;;;;;;6257304;23;20406;-85
2024/01/31 02:29:06;;;;;;;5.70;5.20;;;8.40;99.90;;;;;;6250510;23;20760;-85
2024/01/31 02:31:33;;;;;;;5.53;4.40;;;8.30;1.00;;;;;;6257584;23;20400;-84
2024/01/31 02:34:00;;;;;;;6.00;4.13;;;8.30;99.90;;;;;;6272031;23;20405;-85
2024/01/31 02:36:26;;;;;;;4.30;3.87;;;8.30;99.90;;;;;;6251167;23;20516;-85
2024/01/31 02:38:53;;;;;;;5.90;4.40;;;8.30;99.90;;;;;;6253610;23;20447;-85
2024/01/31 02:41:21;;;;;;;4.60;3.80;;;8.30;99.90;;;;;;6264376;23;20914;-85
2024/01/31 02:43:50;;;;;;;5.10;4.13;;;8.30;99.90;;;;;;6266482;23;20420;-85
2024/01/31 02:46:17;;;;;;;4.60;4.20;;;8.30;99.90;;;;;;6258832;23;20413;-86
2024/01/31 02:48:45;;;;;;;4.13;3.83;;;8.30;99.90;;;;;;6251765;23;20387;-86
2024/01/31 02:51:12;;;;;;;6.60;3.90;;;8.30;99.90;;;;;;6252253;23;20410;-85
2024/01/31 02:53:39;;;;;;;4.30;3.70;;;8.20;99.90;;;;;;6250464;23;20408;-86
2024/01/31 02:56:08;;;;;;;4.03;3.10;;;8.30;99.90;;;;;;6249062;23;20459;-86
2024/01/31 02:58:37;;;;;;;3.90;3.60;;;8.20;99.90;;;;;;6249719;23;20423;-85
2024/01/31 03:01:06;;;;;;;6.10;3.17;;;8.30;99.90;;;;;;6249246;23;20459;-85
2024/01/31 03:03:33;;;;;;;3.33;3.03;;;8.30;99.90;;;;;;6249433;23;20394;-86
2024/01/31 03:06:00;;;;;;;3.47;3.17;;;8.20;99.90;;;;;;6249559;23;20492;-86
2024/01/31 03:08:27;;;;;;;3.27;3.07;;;8.20;99.90;;;;;;6249035;23;20958;-86
2024/01/31 03:10:54;;;;;;;3.53;2.50;;;8.20;99.90;;;;;;6248642;23;20421;-86
2024/01/31 03:13:21;;;;;;;6.33;3.00;;;8.20;99.90;;;;;;6248325;23;20457;-86
2024/01/31 03:15:49;;;;;;;2.87;2.67;;;8.10;99.90;;;;;;6249157;23;20380;-86
2024/01/31 03:18:16;;;;;;;2.63;2.43;;;8.20;99.90;;;;;;6251448;23;20442;-87
2024/01/31 03:20:43;;;;;;;2.30;2.20;;;8.10;99.90;;;;;;6269051;23;20412;-85
2024/01/31 03:23:10;;;;;;;3.53;2.20;;;8.10;99.90;;;;;;6266758;23;20396;-86
2024/01/31 03:25:37;;;;;;;2.40;2.20;;;8.10;99.90;;;;;;6261257;23;20387;-85
2024/01/31 03:28:04;;;;;;;2.10;1.80;;;8.10;1.00;;;;;;6267774;23;20408;-86
2024/01/31 03:30:31;;;;;;;2.20;2.10;;;8.20;99.90;;;;;;6259306;23;20404;-85
2024/01/31 03:32:59;;;;;;;2.50;2.30;;;8.10;99.90;;;;;;6257871;23;20416;-86
2024/01/31 03:35:26;;;;;;;1.53;1.43;;;8.00;99.90;;;;;;6256034;23;20415;-86
2024/01/31 03:37:53;;;;;;;1.40;1.30;;;8.10;99.90;;;;;;6252150;23;20437;-85
2024/01/31 03:40:20;;;;;;;1.70;1.37;;;8.00;99.90;;;;;;6250641;23;20929;-84
2024/01/31 03:42:47;;;;;;;3.17;2.60;;;8.00;1.00;;;;;;6251083;23;20453;-85
2024/01/31 03:45:14;;;;;;;1.97;1.20;;;8.00;1.00;;;;;;6252370;23;20435;-85
2024/01/31 03:47:41;;;;;;;1.43;1.33;;;8.00;1.00;;;;;;6251397;23;20451;-86
2024/01/31 03:50:10;;;;;;;1.10;1.00;;;7.90;1.00;;;;;;6251769;23;20401;-85
2024/01/31 03:52:37;;;;;;;1.80;1.70;;;7.90;1.00;;;;;;6253002;23;20429;-85
2024/01/31 03:55:04;;;;;;;1.80;1.70;;;7.90;1.00;;;;;;6252771;23;20459;-85
2024/01/31 03:57:31;;;;;;;2.30;2.03;;;7.80;54.00;;;;;;6251545;23;20955;-85
2024/01/31 04:00:04;;;;;;;4.07;1.40;;;7.80;1.00;;;;;;6251689;23;20933;-84
2024/01/31 04:02:31;;;;;;;1.53;1.43;;;7.70;1.00;;;;;;6252107;23;20466;-85
2024/01/31 04:04:58;;;;;;;3.00;1.20;;;7.70;1.00;;;;;;6252800;23;20494;-84
2024/01/31 04:07:28;;;;;;;5.00;1.70;;;7.60;1.00;;;;;;6264261;23;20703;-84
2024/01/31 04:09:54;;;;;;;1.20;1.20;;;7.60;99.90;;;;;;6265308;23;20376;-84
2024/01/31 04:12:21;;;;;;;1.90;1.67;;;7.60;99.90;;;;;;6263478;23;20396;-84
2024/01/31 04:14:48;;;;;;;1.57;1.47;;;7.50;99.90;;;;;;6266707;23;20428;-84
2024/01/31 04:17:15;;;;;;;1.60;1.37;;;7.50;99.90;;;;;;6267037;23;20409;-84
2024/01/31 04:19:45;;;;;;;1.53;1.43;;;7.60;1.00;;;;;;6268756;23;20375;-84
2024/01/31 04:22:12;;;;;;;1.87;1.77;;;7.50;1.00;;;;;;6266185;23;20396;-84
2024/01/31 04:24:40;;;;;;;2.70;1.53;;;7.50;1.00;;;;;;6270590;22;20388;-83
2024/01/31 04:27:07;;;;;;;3.23;1.70;;;7.50;1.00;;;;;;6274090;22;20389;-84
2024/01/31 04:29:34;;;;;;;1.60;1.50;;;7.50;1.00;;;;;;6264039;23;20406;-85
2024/01/31 04:32:01;;;;;;;1.57;1.47;;;7.40;1.00;;;;;;6263518;23;20400;-84
2024/01/31 04:34:29;;;;;;;1.43;1.33;;;7.40;1.00;;;;;;6274460;23;20388;-85
2024/01/31 04:36:56;;;;;;;2.63;1.30;;;7.50;1.00;;;;;;6271670;23;20407;-85
2024/01/31 04:39:23;;;;;;;1.73;1.53;;;7.40;1.00;;;;;;6262395;23;20814;-85
2024/01/31 04:41:51;;;;;;;1.70;1.53;;;7.30;1.00;;;;;;6253852;23;20817;-85
2024/01/31 04:44:18;;;;;;;1.50;1.40;;;7.40;1.00;;;;;;6253412;23;20415;-85
2024/01/31 04:46:46;;;;;;;1.73;1.50;;;7.50;70.70;;;;;;6252059;23;20408;-84
2024/01/31 04:49:13;;;;;;;1.17;1.07;;;7.50;1.00;;;;;;6251163;23;20397;-85
2024/01/31 04:51:41;;;;;;;1.30;1.20;;;7.50;1.00;;;;;;6252690;23;20425;-85
2024/01/31 04:54:08;;;;;;;1.43;1.33;;;7.50;1.00;;;;;;6252933;23;20428;-84
2024/01/31 04:56:36;;;;;;;1.50;1.40;;;7.50;99.90;;;;;;6254558;23;20564;-85
2024/01/31 04:59:04;;;;;;;1.27;1.17;;;7.30;99.90;;;;;;6272473;23;20421;-84
2024/01/31 05:01:31;;;;;;;1.83;1.73;;;7.30;1.00;;;;;;6268960;23;20513;-84
2024/01/31 05:03:58;;;;;;;1.83;1.20;;;7.30;1.00;;;;;;6266416;23;20465;-85
2024/01/31 05:06:25;;;;;;;2.63;1.47;;;7.40;1.00;;;;;;6262804;23;20428;-84
2024/01/31 05:08:52;;;;;;;1.17;1.07;;;7.30;99.90;;;;;;6254271;23;20397;-84
2024/01/31 05:11:18;;;;;;;1.33;1.17;;;7.30;1.00;;;;;;6252102;23;20965;-84
2024/01/31 05:13:46;;;;;;;1.10;1.10;;;7.30;99.90;;;;;;6252286;23;20484;-85
2024/01/31 05:16:14;;;;;;;3.60;1.38;;;7.30;1.00;;;;;;6253218;23;20527;-85
2024/01/31 05:18:41;;;;;;;0.90;0.90;;;7.20;99.90;;;;;;6259218;23;20190;-84
2024/01/31 05:21:10;;;;;;;0.90;0.90;;;7.10;99.90;;;;;;6264125;23;20401;-84
2024/01/31 05:23:37;;;;;;;1.97;1.20;;;7.10;99.90;;;;;;6264787;23;20402;-84
2024/01/31 05:26:08;;;;;;;1.73;1.10;;;7.10;99.90;;;;;;6270809;22;20389;-84
2024/01/31 05:28:37;;;;;;;1.10;1.00;;;7.10;1.00;;;;;;6274631;22;20441;-84
2024/01/31 05:31:04;;;;;;;1.55;1.13;;;7.10;1.00;;;;;;6272748;23;20417;-83
2024/01/31 05:33:32;;;;;;;1.10;1.00;;;7.00;1.00;;;;;;6272024;23;20179;-84
2024/01/31 05:36:00;;;;;;;1.63;1.00;;;7.00;99.90;;;;;;6269499;23;20525;-84
2024/01/31 05:38:27;;;;;;;1.00;1.00;;;7.00;99.90;;;;;;6256033;23;20433;-85
2024/01/31 05:40:54;;;;;;;0.87;0.87;;;6.90;99.90;;;;;;6254309;23;20175;-85
2024/01/31 05:43:21;;;;;;;1.00;1.00;;;6.90;1.00;;;;;;6253990;23;20469;-85
2024/01/31 05:45:48;;;;;;;1.25;1.15;;;6.90;1.00;;;;;;6254545;23;20229;-84
2024/01/31 05:48:16;;;;;;;1.13;1.07;;;6.90;99.90;;;;;;6254545;23;20523;-85
2024/01/31 05:50:46;;;;;;;1.65;1.20;;;6.90;99.90;;;;;;6255940;23;20791;-85
2024/01/31 05:53:13;;;;;;;5.83;4.00;;;6.90;99.90;;;;;;6255291;23;20277;-85
2024/01/31 05:55:40;;;;;;;6.55;5.28;;;6.90;99.90;;;;;;6255128;23;20476;-85
2024/01/31 05:58:07;;;;;;;2.03;1.90;;;6.90;99.90;;;;;;6263549;23;20226;-84
2024/01/31 06:00:34;;;;;;;6.80;4.40;;;6.90;99.90;;;;;;6268715;23;20389;-85
2024/01/31 06:03:01;;;;;;;1.90;1.80;;;6.90;1.00;;;;;;6260678;23;20688;-85
2024/01/31 06:05:28;;;;;;;2.55;1.45;;;6.80;1.00;;;;;;6252045;23;20484;-85
2024/01/31 06:07:56;;;;;;;1.50;1.40;;;6.70;1.00;;;;;;6251327;23;20181;-86
2024/01/31 06:10:24;;;;;;;1.52;1.38;;;6.80;1.00;;;;;;6251246;23;20820;-85
2024/01/31 06:12:51;;;;;;;1.63;1.52;;;6.80;1.00;;;;;;6251882;23;20194;-85
2024/01/31 06:15:18;;;;;;;2.00;1.67;;;6.80;1.00;;;;;;6251912;23;20726;-85
2024/01/31 06:17:46;;;;;;;1.23;1.13;;;6.80;1.00;;;;;;6259572;23;20381;-84
2024/01/31 06:20:13;;;;;;;1.50;1.40;;;6.70;99.90;;;;;;6274475;22;20238;-83
2024/01/31 06:22:40;;;;;;;1.45;1.35;;;6.70;1.00;;;;;;6272617;23;20175;-84
2024/01/31 06:25:09;;;;;;;1.27;1.17;;;6.70;1.00;;;;;;6266504;23;20183;-85
2024/01/31 06:27:37;;;;;;;1.00;0.90;;;6.70;99.90;;;;;;6273376;22;20167;-86
2024/01/31 06:30:05;;;;;;;1.00;1.00;;;6.60;1.00;;;;;;6272842;22;20177;-85
2024/01/31 06:32:33;;;;;;;2.03;0.98;;;6.60;1.00;;;;;;6261787;23;20253;-86
2024/01/31 06:34:59;;;;;;;1.38;1.20;;;6.70;1.00;;;;;;6256868;23;20182;-85
2024/01/31 06:37:27;;;;;;;1.17;1.08;;;6.70;99.90;;;;;;6265662;23;20309;-85
2024/01/31 06:39:54;;;;;;;1.38;1.25;;;6.70;99.90;;;;;;6258733;23;20198;-84
2024/01/31 06:42:22;;;;;;;1.75;1.20;;;6.70;99.90;;;;;;6257683;23;20198;-85
2024/01/31 06:44:49;;;;;;;0.85;0.85;;;6.70;99.90;;;;;;6256576;23;20206;-85
2024/01/31 06:47:16;;;;;;;1.10;1.00;;;6.70;17.50;;;;;;6255989;23;20501;-85
2024/01/31 06:49:43;;;;;;;2.92;1.17;;;6.60;99.90;;;;;;6251894;23;20166;-85
2024/01/31 06:52:11;;;;;;;1.75;0.98;;;6.60;99.90;;;;;;6257742;23;20249;-84
2024/01/31 06:54:38;;;;;;;1.67;1.23;;;6.60;99.90;;;;;;6262261;22;20178;-84
2024/01/31 06:57:05;;;;;;;1.10;1.10;;;6.50;99.90;;;;;;6264415;22;20167;-86
2024/01/31 06:59:33;;;;;;;2.15;1.52;;;6.60;99.90;;;;;;6253656;23;20250;-86
2024/01/31 07:02:00;;;;;;;1.70;1.13;;;6.60;99.90;;;;;;6256172;23;20258;-85
2024/01/31 07:04:27;;;;;;;0.88;0.88;;;6.50;99.90;;;;;;6255256;23;20182;-86
2024/01/31 07:06:54;;;;;;;1.17;1.08;;;6.50;99.90;;;;;;6254859;23;20224;-85
2024/01/31 07:09:20;;;;;;;1.77;0.90;;;6.60;99.90;;;;;;6253146;23;20202;-85
2024/01/31 07:11:47;;;;;;;0.95;0.90;;;6.50;22.50;;;;;;6255491;23;20194;-85
2024/01/31 07:14:15;;;;;;;3.03;1.90;;;6.50;81.60;;;;;;6256455;23;20171;-85
2024/01/31 07:16:43;;;;;;;1.88;1.75;;;6.50;92.30;;;;;;6262278;23;20181;-85
2024/01/31 07:19:10;;;;;;;1.70;1.60;;;6.50;57.60;;;;;;6264609;23;20277;-84
2024/01/31 07:21:37;;;;;;;2.55;1.50;;;6.60;99.90;;;;;;6262514;23;20277;-86
2024/01/31 07:24:05;;;;;;;3.03;1.13;;;6.50;99.90;;;;;;6256065;23;20178;-86
2024/01/31 07:26:32;;;;;;;1.10;1.00;;;6.50;99.90;;;;;;6261679;23;20205;-85
2024/01/31 07:28:59;;;;;;;1.30;1.30;;;6.50;99.90;;;;;;6258314;23;20175;-86
2024/01/31 07:31:26;;;;;;;1.17;1.10;;;6.40;53.10;;;;;;6254220;23;20194;-85
2024/01/31 07:33:54;;;;;;;0.80;0.80;;;6.50;99.90;;;;;;6257239;23;20178;-86
2024/01/31 07:36:21;;;;;;;2.60;1.30;;;6.40;17.80;;;;;;6269452;23;20166;-85
2024/01/31 07:38:48;;;;;;;1.10;1.00;;;6.40;93.60;;;;;;6263629;23;20191;-86
2024/01/31 07:41:15;;;;;;;1.00;0.88;;;6.40;69.10;;;;;;6254299;23;20636;-84
2024/01/31 07:43:42;;;;;;;1.30;1.00;;;6.40;93.60;;;;;;6255856;23;20178;-86
2024/01/31 07:46:09;;;;;;;2.17;1.15;;;6.50;99.90;;;;;;6252525;23;20240;-85
2024/01/31 07:48:36;;;;;;;1.30;1.20;;;6.40;99.90;;;;;;6253368;23;20221;-85
2024/01/31 07:51:06;;;;;;;1.00;1.00;;;6.40;99.90;;;;;;6252024;23;20561;-86
2024/01/31 07:53:33;;;;;;;1.40;1.20;;;6.30;99.90;;;;;;6251363;23;20198;-86
2024/01/31 07:56:00;;;;;;;2.45;1.52;;;6.30;99.90;;;;;;6251964;23;20505;-86
2024/01/31 07:58:28;;;;;;;1.33;1.23;;;6.30;99.90;;;;;;6260557;23;20503;-84
2024/01/31 08:00:55;;;;;;;1.70;1.60;;;6.10;82.00;;;;;;6263025;23;20217;-85
2024/01/31 08:03:48;;;;;;;2.22;1.27;;;6.10;99.90;;;;;;6246186;22;20203;-87
2024/01/31 08:06:23;;;;;;;4.68;1.08;;;5.90;99.90;;;;;;6250935;23;20233;-88
2024/01/31 08:08:52;;;;;;;2.28;1.45;;;6.20;99.90;;;;;;6250990;23;20163;-87
2024/01/31 08:14:26;;;;;;;1.10;1.00;;;6.00;99.90;;;;;;6243528;23;20181;-87
2024/01/31 08:16:56;;;;;;;0.85;0.85;;;6.10;99.90;;;;;;6251127;23;20249;-88
2024/01/31 08:19:32;;;;;;;1.10;1.00;;;6.20;99.90;;;;;;6257432;22;20167;-87
2024/01/31 08:22:13;;;;;;;1.33;1.23;;;6.20;99.90;;;;;;6275693;22;20190;-85
2024/01/31 08:24:51;;;;;;;1.50;1.00;;;6.10;99.90;;;;;;6273879;22;20159;-88
2024/01/31 08:30:45;;;;;;;1.30;1.20;;;6.20;99.90;;;;;;6262613;22;20165;-88
2024/01/31 08:33:23;;;;;;;1.50;1.40;;;6.30;99.90;;;;;;6271791;22;20201;-87
2024/01/31 08:35:56;;;;;;;1.02;0.93;;;6.20;99.90;;;;;;6273139;23;20162;-88
2024/01/31 08:38:37;;;;;;;1.23;1.13;;;6.30;99.90;;;;;;6275828;22;20170;-88
2024/01/31 08:41:20;;;;;;;1.85;1.10;;;6.20;99.90;;;;;;6275923;22;20304;-85
2024/01/31 08:44:09;;;;;;;0.98;0.98;;;6.30;99.90;;;;;;6275524;22;20150;-85
2024/01/31 08:46:48;;;;;;;1.58;1.48;;;6.60;99.90;;;;;;6275841;22;20188;-84
2024/01/31 08:49:31;;;;;;;1.67;1.27;;;6.30;99.90;;;;;;6275491;22;20151;-85
2024/01/31 08:52:09;;;;;;;1.42;1.33;;;6.20;99.90;;;;;;6275057;22;20197;-86
2024/01/31 08:54:49;;;;;;;2.95;1.70;;;6.10;99.90;;;;;;6261639;23;20185;-87
2024/01/31 08:57:30;;;;;;;1.92;1.83;;;6.30;99.90;;;;;;6253663;23;20231;-87
2024/01/31 09:00:31;;;;;;;1.20;1.20;;;6.30;99.90;;;;;;6254949;23;20185;-88
2024/01/31 09:06:31;;;;;;;1.58;1.48;;;6.20;99.90;;;;;;6214233;23;20237;-87
2024/01/31 09:09:06;;;;;;;1.55;1.45;;;6.30;99.90;;;;;;6260205;23;20216;-87
2024/01/31 09:14:26;;;;;;;1.23;1.02;;;6.50;99.90;;;;;;6254480;23;20296;-88
2024/01/31 09:17:16;;;;;;;1.30;1.17;;;6.40;1.00;;;;;;6252559;23;20652;-86
2024/01/31 09:19:55;;;;;;;1.33;1.23;;;6.50;1.00;;;;;;6264313;23;20187;-88
2024/01/31 09:22:28;;;;;;;1.40;1.30;;;6.60;1.00;;;;;;6262661;23;20217;-85
2024/01/31 09:25:10;;;;;;;2.38;1.42;;;6.70;1.00;;;;;;6261831;23;20161;-87
2024/01/31 09:27:50;;;;;;;1.55;1.00;;;6.70;1.00;;;;;;6253188;23;20177;-87
2024/01/31 09:30:20;;;;;;;2.83;1.45;;;6.90;1.00;;;;;;6269674;22;20185;-87
2024/01/31 09:32:49;;;;;;;1.17;1.10;;;6.50;1.00;;;;;;6271006;23;20194;-88
2024/01/31 09:35:27;;;;;;;2.92;1.63;;;6.20;47.40;;;;;;6260296;23;20174;-88
2024/01/31 09:37:58;;;;;;;1.35;1.25;;;6.20;99.90;;;;;;6254011;23;20642;-88
2024/01/31 09:40:28;;;;;;;1.60;1.23;;;5.90;99.90;;;;;;6252709;23;20236;-87
2024/01/31 09:43:04;;;;;;;3.55;1.50;;;5.90;99.90;;;;;;6252870;23;20250;-87
2024/01/31 09:45:39;;;;;;;1.60;1.50;;;6.00;99.90;;;;;;6253920;23;20186;-87
2024/01/31 09:48:11;;;;;;;2.33;1.30;;;5.90;17.90;;;;;;6255169;23;20178;-87
2024/01/31 09:50:53;;;;;;;4.43;1.95;;;6.10;99.90;;;;;;6251578;23;20221;-90
2024/01/31 09:53:40;;;;;;;2.55;1.33;;;6.20;99.90;;;;;;6248740;23;20582;-90
2024/01/31 09:59:08;;;;;;;0.90;0.90;;;6.30;77.00;;;;;;6252710;23;20178;-88
2024/01/31 10:01:52;;;;;;;3.45;1.10;;;6.30;32.00;;;;;;6252067;23;20261;-88
2024/01/31 10:04:28;;;;;;;1.40;1.30;;;6.50;1.00;;;;;;6264446;23;20201;-87
2024/01/31 10:07:10;;;;;;;1.27;0.95;;;6.30;1.00;;;;;;6251306;23;20170;-87
2024/01/31 10:09:57;;;;;;;2.33;1.50;;;6.20;1.00;;;;;;6252067;23;20161;-86
2024/01/31 10:12:40;;;;;;;4.75;2.53;;;6.40;1.00;;;;;;6251177;23;20194;-87
2024/01/31 10:15:24;;;;;;;2.97;1.60;;;6.10;1.00;;;;;;6253584;23;20166;-87
2024/01/31 10:18:06;;;;;;;1.27;1.10;;;6.20;1.00;;;;;;6252968;23;20474;-88
2024/01/31 10:20:44;;;;;;;9.52;1.55;;;6.30;1.00;;;;;;6251279;23;20248;-88
2024/01/31 10:23:22;;;;;;;2.33;1.27;;;6.40;1.00;;;;;;6250828;23;20194;-88
2024/01/31 10:25:54;;;;;;;3.00;1.38;;;6.40;1.00;;;;;;6250109;23;20175;-88
2024/01/31 10:28:32;;;;;;;2.55;1.15;;;6.60;1.00;;;;;;6253112;23;20178;-88
2024/01/31 10:31:11;;;;;;;1.85;1.42;;;6.80;1.00;;;;;;6252051;23;20228;-88
2024/01/31 10:33:39;;;;;;;2.80;2.10;;;6.60;1.00;;;;;;6251059;23;20201;-86
2024/01/31 10:36:22;;;;;;;4.70;1.60;;;6.80;1.00;;;;;;6254264;23;20178;-88
2024/01/31 10:38:55;;;;;;;5.93;1.60;;;6.80;1.00;;;;;;6254965;23;20170;-88
2024/01/31 10:41:31;;;;;;;1.33;1.23;;;6.90;1.00;;;;;;6269766;23;20178;-87
2024/01/31 10:44:26;;;;;;;1.70;1.27;;;6.80;1.00;;;;;;6270839;23;20158;-88
2024/01/31 10:50:16;;;;;;;2.13;1.40;;;6.60;1.00;;;;;;6261947;23;20402;-89
2024/01/31 10:53:16;;;;;;;1.48;1.38;;;6.70;1.00;;;;;;6255884;23;20194;-87
2024/01/31 10:56:02;;;;;;;2.88;1.80;;;6.70;1.00;;;;;;6254953;23;20200;-87
2024/01/31 10:58:42;;;;;;;9.73;1.92;;;6.50;1.00;;;;;;6268204;23;20193;-86
2024/01/31 11:01:35;;;;;;;1.65;1.52;;;6.70;1.00;;;;;;6266197;23;20190;-86
2024/01/31 11:04:11;;;;;;;1.38;1.27;;;6.70;1.00;;;;;;6260372;22;20221;-87
2024/01/31 11:09:37;;;;;;;3.13;1.20;;;6.70;1.00;;;;;;6247970;23;20182;-87
2024/01/31 11:12:16;;;;;;;3.92;1.40;;;6.60;1.00;;;;;;6259828;23;20198;-87
2024/01/31 11:15:48;;;;;;;2.92;1.17;;;6.60;1.00;;;;;;6259652;23;20170;-87
2024/01/31 11:18:36;;;;;;;2.30;1.27;;;6.50;1.00;;;;;;6253667;23;20680;-87
2024/01/31 11:21:21;;;;;;;5.10;1.80;;;6.50;1.00;;;;;;6254259;23;20740;-87
2024/01/31 11:23:58;;;;;;;2.00;1.80;;;6.40;1.00;;;;;;6252896;23;20444;-87
2024/01/31 11:26:33;;;;;;;1.90;1.33;;;6.40;1.00;;;;;;6252714;23;20405;-89
2024/01/31 11:29:12;;;;;;;5.68;2.47;;;6.40;60.20;;;;;;6252641;23;20220;-88
2024/01/31 11:31:44;;;;;;;7.10;2.40;;;6.20;67.10;;;;;;6268030;23;20196;-87
2024/01/31 11:34:17;;;;;;;3.20;2.30;;;6.00;53.70;;;;;;6272553;22;20158;-87
2024/01/31 11:37:14;;;;;;;3.20;2.17;;;6.00;99.90;;;;;;6273008;22;20170;-87
2024/01/31 11:39:58;;;;;;;12.02;4.95;;;5.50;1.00;;;;;;6268776;23;20175;-88
2024/01/31 11:42:33;;;;;;;6.97;2.60;;;5.60;99.90;;;;;;6273119;23;20198;-88
2024/01/31 11:45:10;;;;;;;4.80;3.30;;;6.00;99.90;;;;;;6253492;23;20228;-88
2024/01/31 11:47:50;;;;;;;3.45;2.13;;;5.50;1.00;;;;;;6249784;23;20162;-87
2024/01/31 11:53:12;;;;;;;6.07;3.05;;;5.30;47.20;;;;;;6252226;23;20209;-87
2024/01/31 11:55:50;;;;;;;2.75;2.40;;;5.50;99.90;;;;;;6260097;22;20158;-86
2024/01/31 11:58:30;;;;;;;6.47;3.40;;;5.40;99.90;;;;;;6276209;22;20172;-85
2024/01/31 12:01:17;;;;;;;2.15;1.50;;;5.70;99.90;;;;;;6260691;22;20624;-88
2024/01/31 12:03:59;;;;;;;3.05;1.90;;;5.80;99.90;;;;;;6253371;23;20261;-87
2024/01/31 12:06:43;;;;;;;4.97;1.92;;;5.80;22.30;;;;;;6259173;23;20166;-87
2024/01/31 12:09:11;;;;;;;4.45;1.55;;;6.10;1.00;;;;;;6250155;23;20182;-87
2024/01/31 12:12:00;;;;;;;8.75;2.10;;;5.90;1.00;;;;;;6252228;23;20229;-87
2024/01/31 12:14:38;;;;;;;8.63;2.45;;;5.80;1.00;;;;;;6253342;23;20201;-86
2024/01/31 12:20:12;;;;;;;10.15;1.63;;;6.00;1.00;;;;;;6241667;23;20194;-86
2024/01/31 12:25:50;;;;;;;18.55;7.78;;;6.10;1.00;;;;;;6240171;23;20174;-87
2024/01/31 12:28:21;;;;;;;5.35;2.17;;;5.90;1.00;;;;;;6268367;23;20601;-87
2024/01/31 12:30:48;;;;;;;4.18;2.15;;;6.10;1.00;;;;;;6259811;23;20166;-86
2024/01/31 12:33:27;;;;;;;3.70;2.10;;;6.00;1.00;;;;;;6273780;23;20202;-86
2024/01/31 12:36:01;;;;;;;4.95;2.03;;;6.10;1.00;;;;;;6275264;22;20181;-87
2024/01/31 12:41:31;;;;;;;2.05;1.75;;;6.10;1.00;;;;;;6222373;23;20198;-87
2024/01/31 12:44:04;;;;;;;8.85;2.78;;;6.30;1.00;;;;;;6259005;23;20635;-87
2024/01/31 12:46:39;;;;;;;5.57;3.05;;;6.30;1.00;;;;;;6256265;23;20174;-87
2024/01/31 12:49:14;;;;;;;6.55;2.70;;;6.10;1.00;;;;;;6254205;23;20150;-87
2024/01/31 12:51:59;;;;;;;3.20;1.50;;;6.10;1.00;;;;;;6253101;23;20220;-87
2024/01/31 12:54:32;;;;;;;2.35;1.88;;;6.10;1.00;;;;;;6255584;23;20597;-88
2024/01/31 12:57:17;;;;;;;4.90;1.48;;;6.20;1.00;;;;;;6256297;23;20155;-87
2024/01/31 12:59:52;;;;;;;2.88;2.00;;;6.20;1.00;;;;;;6255634;23;20155;-87
2024/01/31 13:02:25;;;;;;;7.53;2.60;;;6.40;1.00;;;;;;6252352;23;20216;-87
2024/01/31 13:05:13;;;;;;;3.35;1.92;;;6.40;1.00;;;;;;6252933;23;20162;-87
2024/01/31 13:07:51;;;;;;;2.50;2.25;;;6.40;1.00;;;;;;6254737;23;20171;-86
2024/01/31 13:10:30;;;;;;;5.32;2.42;;;6.40;1.00;;;;;;6274569;22;20224;-86
2024/01/31 13:13:03;;;;;;;5.28;1.70;;;6.20;1.00;;;;;;6274869;22;20254;-87
2024/01/31 13:15:44;;;;;;;3.15;1.63;;;6.30;1.00;;;;;;6275016;22;20193;-86
2024/01/31 13:18:37;;;;;;;3.75;2.90;;;6.10;1.00;;;;;;6273961;22;20170;-87
2024/01/31 13:21:08;;;;;;;1.40;1.30;;;6.30;1.00;;;;;;6254204;23;20521;-86
2024/01/31 13:23:39;;;;;;;9.70;4.13;;;6.30;1.00;;;;;;6252070;23;20540;-87
2024/01/31 13:26:16;;;;;;;3.17;1.80;;;6.30;1.00;;;;;;6252552;23;20178;-86
2024/01/31 13:29:38;;;;;;;;;;;;;;;;;;;;;
2024/01/31 13:39:35;;;;;;;3.00;1.73;;;6.20;1.00;;;;;;6248867;23;20177;-88
2024/01/31 14:01:55;;;;;;;4.38;2.15;;;6.30;1.00;;;;;;6252472;23;20260;-88
2024/01/31 15:09:54;;;;;;;4.40;2.83;;;5.70;1.00;;;;;;5915077;23;20300;-88
2024/01/31 15:13:20;;;;;;;4.57;4.28;;;5.70;1.00;;;;;;6051475;23;20195;-87
2024/01/31 15:16:20;;;;;;;4.10;3.67;;;5.70;1.00;;;;;;6081308;23;20633;-87
2024/01/31 15:19:52;;;;;;;3.25;3.03;;;5.60;1.00;;;;;;6139592;23;20176;-87
2024/01/31 15:23:08;;;;;;;;;;;;;;;;;;;;;
2024/01/31 15:32:37;;;;;;;4.88;3.60;;;5.40;1.00;;;;;;6204143;23;20201;-87
2024/01/31 15:35:27;;;;;;;3.45;3.15;;;5.40;1.00;;;;;;6213511;23;20171;-87
2024/01/31 15:40:51;;;;;;;4.15;3.75;;;5.40;1.00;;;;;;6198933;23;20191;-88
2024/01/31 15:43:20;;;;;;;4.85;4.35;;;5.40;1.00;;;;;;6199621;23;20214;-88
2024/01/31 15:45:47;;;;;;;4.70;4.30;;;5.50;1.00;;;;;;6205697;23;20498;-88